createdAt,value
2018-07-17T00:01:08.933Z,91.41
2018-07-17T00:03:36.035Z,91.44
2018-07-17T00:06:03.192Z,90.83
2018-07-17T00:08:30.317Z,91.36
2018-07-17T00:10:57.520Z,93.06
2018-07-17T00:13:24.677Z,92.15
2018-07-17T00:15:51.857Z,91.65
2018-07-17T00:18:19.000Z,91.71
2018-07-17T00:20:46.368Z,90.84
2018-07-17T00:23:13.573Z,90.62
2018-07-17T00:25:40.739Z,91.95
2018-07-17T00:28:07.900Z,91.56
2018-07-17T00:30:35.064Z,91.31
2018-07-17T00:33:02.207Z,89.86
2018-07-17T00:35:29.312Z,90.09
2018-07-17T00:37:56.418Z,90.87
2018-07-17T00:40:23.565Z,91.71
2018-07-17T00:42:50.672Z,91.12
2018-07-17T00:45:17.820Z,90.50
2018-07-17T00:47:45.103Z,90.71
2018-07-17T00:50:12.228Z,91.35
2018-07-17T00:52:39.396Z,92.43
2018-07-17T00:55:06.619Z,92.45
2018-07-17T00:57:33.756Z,93.06
2018-07-17T01:00:00.927Z,92.24
2018-07-17T01:02:33.672Z,92.52
2018-07-17T01:05:06.684Z,93.24
2018-07-17T01:07:46.291Z,93.61
2018-07-17T01:10:18.948Z,92.35
2018-07-17T01:12:45.563Z,91.91
2018-07-17T01:15:22.951Z,92.52
2018-07-17T01:17:50.125Z,93.11
2018-07-17T01:20:17.275Z,95.01
2018-07-17T01:22:44.420Z,93.11
2018-07-17T01:25:11.647Z,91.83
2018-07-17T01:27:38.828Z,91.35
2018-07-17T01:30:05.996Z,92.58
2018-07-17T01:32:33.124Z,92.97
2018-07-17T01:35:00.326Z,93.96
2018-07-17T01:37:27.552Z,93.66
2018-07-17T01:39:54.710Z,92.86
2018-07-17T01:42:21.880Z,91.53
2018-07-17T01:44:49.007Z,91.74
2018-07-17T01:47:16.141Z,91.41
2018-07-17T01:49:43.280Z,91.03
2018-07-17T01:52:10.451Z,92.41
2018-07-17T01:54:37.586Z,91.74
2018-07-17T01:57:04.700Z,91.92
2018-07-17T01:59:31.848Z,93.62
2018-07-17T02:01:58.993Z,93.27
2018-07-17T02:04:26.115Z,92.31
2018-07-17T02:06:53.253Z,91.75
2018-07-17T02:09:20.379Z,90.95
2018-07-17T02:11:47.521Z,90.85
2018-07-17T02:14:14.688Z,90.69
2018-07-17T02:16:41.833Z,90.98
2018-07-17T02:19:08.969Z,92.84
2018-07-17T02:21:36.132Z,92.53
2018-07-17T02:24:03.265Z,91.60
2018-07-17T02:26:30.384Z,92.41
2018-07-17T02:28:57.508Z,92.96
2018-07-17T02:31:24.759Z,93.28
2018-07-17T02:33:51.879Z,91.54
2018-07-17T02:36:19.044Z,92.06
2018-07-17T02:38:46.195Z,92.46
2018-07-17T02:41:13.339Z,91.79
2018-07-17T02:43:40.451Z,90.94
2018-07-17T02:46:07.586Z,91.46
2018-07-17T02:48:34.740Z,93.93
2018-07-17T02:51:01.880Z,93.17
2018-07-17T02:53:28.971Z,91.93
2018-07-17T02:55:56.102Z,91.33
2018-07-17T02:58:23.256Z,90.79
2018-07-17T03:00:50.480Z,90.68
2018-07-17T03:03:17.605Z,90.32
2018-07-17T03:05:44.712Z,90.22
2018-07-17T03:08:11.849Z,92.05
2018-07-17T03:10:38.956Z,91.42
2018-07-17T03:13:06.116Z,91.22
2018-07-17T03:15:33.197Z,91.33
2018-07-17T03:18:00.342Z,89.86
2018-07-17T03:20:27.452Z,89.81
2018-07-17T03:22:54.628Z,90.22
2018-07-17T03:25:21.770Z,91.16
2018-07-17T03:27:48.882Z,92.34
2018-07-17T03:30:16.012Z,91.85
2018-07-17T03:32:43.147Z,91.40
2018-07-17T03:35:10.261Z,90.88
2018-07-17T03:37:37.448Z,89.52
2018-07-17T03:40:04.905Z,90.21
2018-07-17T03:42:32.047Z,90.70
2018-07-17T03:44:59.187Z,92.36
2018-07-17T03:47:26.357Z,91.39
2018-07-17T03:49:53.516Z,91.20
2018-07-17T03:52:20.754Z,90.29
2018-07-17T03:54:47.937Z,89.94
2018-07-17T03:57:15.117Z,89.12
2018-07-17T03:59:42.326Z,91.42
2018-07-17T04:02:09.460Z,91.22
2018-07-17T04:04:36.616Z,90.29
2018-07-17T04:07:03.777Z,90.29
2018-07-17T04:09:30.933Z,91.44
2018-07-17T04:11:58.115Z,93.32
2018-07-17T04:14:25.359Z,93.12
2018-07-17T04:16:54.295Z,92.89
2018-07-17T04:19:22.451Z,92.63
2018-07-17T04:21:50.315Z,91.27
2018-07-17T04:24:17.672Z,90.93
2018-07-17T04:26:44.926Z,90.31
2018-07-17T04:29:12.119Z,90.09
2018-07-17T04:31:39.217Z,90.08
2018-07-17T04:34:06.368Z,92.00
2018-07-17T04:36:33.513Z,92.65
2018-07-17T04:39:00.689Z,94.27
2018-07-17T04:41:27.812Z,93.21
2018-07-17T04:43:54.937Z,92.34
2018-07-17T04:46:22.209Z,91.51
2018-07-17T04:48:49.429Z,91.03
2018-07-17T04:51:16.635Z,90.97
2018-07-17T04:53:43.831Z,90.88
2018-07-17T04:56:11.181Z,91.48
2018-07-17T04:58:38.352Z,92.16
2018-07-17T05:01:05.909Z,92.03
2018-07-17T05:03:33.019Z,93.20
2018-07-17T05:06:00.140Z,93.05
2018-07-17T05:08:27.260Z,92.20
2018-07-17T05:10:54.480Z,92.27
2018-07-17T05:13:21.664Z,92.21
2018-07-17T05:15:48.792Z,91.02
2018-07-17T05:18:15.912Z,90.37
2018-07-17T05:20:43.028Z,88.39
2018-07-17T05:23:10.129Z,87.95
2018-07-17T05:25:37.241Z,87.43
2018-07-17T05:28:04.356Z,88.14
2018-07-17T05:30:31.513Z,88.56
2018-07-17T05:32:58.672Z,88.87
2018-07-17T05:35:25.810Z,90.57
2018-07-17T05:37:53.035Z,89.68
2018-07-17T05:40:20.223Z,88.39
2018-07-17T05:42:47.368Z,88.60
2018-07-17T05:45:14.512Z,87.56
2018-07-17T05:47:41.623Z,87.23
2018-07-17T05:50:10.157Z,86.95
2018-07-17T05:52:37.516Z,86.11
2018-07-17T05:55:04.821Z,86.26
2018-07-17T05:57:31.898Z,86.10
2018-07-17T05:59:59.088Z,85.20
2018-07-17T06:02:26.208Z,86.29
2018-07-17T06:04:53.335Z,84.89
2018-07-17T06:07:20.453Z,84.13
2018-07-17T06:09:47.670Z,83.43
2018-07-17T06:12:14.921Z,84.74
2018-07-17T06:14:42.133Z,83.74
2018-07-17T06:17:09.761Z,81.57
2018-07-17T06:19:36.915Z,81.42
2018-07-17T06:22:04.088Z,80.27
2018-07-17T06:24:31.208Z,80.99
2018-07-17T06:26:58.331Z,80.90
2018-07-17T06:29:25.612Z,82.39
2018-07-17T06:31:52.764Z,81.28
2018-07-17T06:34:26.851Z,80.88
2018-07-17T06:36:54.020Z,79.37
2018-07-17T06:39:21.192Z,78.58
2018-07-17T06:41:48.324Z,77.42
2018-07-17T06:44:15.492Z,76.23
2018-07-17T06:46:42.651Z,76.37
2018-07-17T06:49:09.744Z,76.87
2018-07-17T06:51:36.922Z,75.25
2018-07-17T06:54:04.085Z,75.55
2018-07-17T06:56:31.245Z,75.14
2018-07-17T06:58:58.427Z,73.66
2018-07-17T07:01:25.588Z,77.29
2018-07-17T07:03:52.739Z,74.44
2018-07-17T07:06:19.946Z,73.13
2018-07-17T07:08:47.076Z,71.92
2018-07-17T07:11:14.321Z,71.44
2018-07-17T07:13:41.436Z,69.03
2018-07-17T07:16:08.604Z,70.21
2018-07-17T07:18:35.699Z,72.45
2018-07-17T07:21:02.887Z,70.42
2018-07-17T07:23:30.019Z,67.95
2018-07-17T07:25:57.162Z,66.12
2018-07-17T07:28:24.296Z,64.43
2018-07-17T07:30:51.744Z,64.02
2018-07-17T07:33:18.957Z,66.31
2018-07-17T07:35:46.173Z,63.26
2018-07-17T07:38:13.319Z,62.71
2018-07-17T07:40:40.490Z,60.74
2018-07-17T07:43:07.607Z,56.50
2018-07-17T07:45:34.787Z,60.36
2018-07-17T07:48:01.972Z,58.04
2018-07-17T07:50:29.111Z,56.62
2018-07-17T07:52:56.248Z,58.19
2018-07-17T07:55:23.389Z,59.64
2018-07-17T07:57:50.592Z,54.77
2018-07-17T08:00:17.807Z,53.47
2018-07-17T08:02:44.998Z,52.73
2018-07-17T08:05:12.201Z,51.42
2018-07-17T08:07:39.388Z,53.49
2018-07-17T08:10:06.912Z,51.26
2018-07-17T08:12:34.069Z,50.30
2018-07-17T08:15:01.284Z,47.82
2018-07-17T08:17:28.752Z,47.78
2018-07-17T08:19:55.899Z,48.50
2018-07-17T08:22:22.969Z,49.97
2018-07-17T08:24:50.094Z,49.09
2018-07-17T08:27:17.241Z,47.74
2018-07-17T08:29:44.385Z,46.55
2018-07-17T08:32:11.532Z,45.35
2018-07-17T08:34:38.664Z,44.73
2018-07-17T08:37:05.912Z,45.35
2018-07-17T08:39:33.128Z,45.28
2018-07-17T08:42:00.256Z,44.83
2018-07-17T08:44:27.356Z,44.54
2018-07-17T08:46:54.519Z,43.48
2018-07-17T08:49:21.676Z,43.54
2018-07-17T08:51:48.874Z,43.39
2018-07-17T08:54:16.082Z,43.92
2018-07-17T08:56:43.257Z,41.80
2018-07-17T08:59:10.411Z,43.01
2018-07-17T09:01:37.551Z,42.56
2018-07-17T09:04:04.731Z,42.56
2018-07-17T09:06:31.959Z,43.37
2018-07-17T09:08:59.104Z,39.84
2018-07-17T09:11:26.317Z,38.81
2018-07-17T09:13:53.425Z,42.05
2018-07-17T09:16:20.584Z,40.32
2018-07-17T09:18:47.747Z,40.69
2018-07-17T09:21:14.943Z,39.63
2018-07-17T09:23:42.943Z,39.61
2018-07-17T09:26:10.143Z,38.96
2018-07-17T09:28:37.304Z,36.59
2018-07-17T09:31:04.451Z,37.43
2018-07-17T09:33:31.941Z,37.41
2018-07-17T09:35:59.755Z,38.72
2018-07-17T09:38:26.873Z,38.52
2018-07-17T09:40:54.239Z,38.04
2018-07-17T09:43:21.388Z,36.81
2018-07-17T09:45:49.096Z,34.98
2018-07-17T09:48:16.252Z,37.62
2018-07-17T09:50:43.403Z,37.39
2018-07-17T09:53:10.505Z,37.55
2018-07-17T09:55:37.714Z,38.48
2018-07-17T09:58:04.956Z,38.11
2018-07-17T10:00:38.688Z,36.67
2018-07-17T10:03:05.899Z,38.10
2018-07-17T10:05:33.004Z,37.99
2018-07-17T10:08:00.156Z,38.28
2018-07-17T10:10:27.348Z,36.68
2018-07-17T10:12:54.480Z,35.25
2018-07-17T10:15:21.675Z,34.66
2018-07-17T10:17:48.879Z,36.34
2018-07-17T10:20:16.031Z,35.70
2018-07-17T10:22:43.140Z,34.70
2018-07-17T10:25:10.311Z,37.55
2018-07-17T10:27:38.040Z,35.41
2018-07-17T10:30:05.274Z,35.53
2018-07-17T10:32:32.508Z,35.43
2018-07-17T10:35:00.269Z,34.30
2018-07-17T10:37:27.444Z,37.53
2018-07-17T10:39:54.608Z,36.28
2018-07-17T10:42:21.740Z,35.24
2018-07-17T10:44:48.881Z,34.87
2018-07-17T10:47:16.136Z,34.69
2018-07-17T10:49:43.248Z,35.07
2018-07-17T10:52:10.420Z,35.80
2018-07-17T10:54:37.532Z,35.97
2018-07-17T10:57:04.664Z,35.34
2018-07-17T10:59:31.739Z,35.51
2018-07-17T11:01:58.929Z,35.32
2018-07-17T11:04:26.083Z,33.81
2018-07-17T11:06:53.252Z,35.54
2018-07-17T11:09:20.404Z,35.17
2018-07-17T11:11:47.812Z,34.15
2018-07-17T11:14:14.991Z,36.53
2018-07-17T11:16:42.152Z,38.69
2018-07-17T11:19:09.277Z,39.49
2018-07-17T11:21:36.402Z,40.36
2018-07-17T11:24:03.562Z,40.78
2018-07-17T11:26:30.727Z,38.64
2018-07-17T11:28:57.837Z,38.36
2018-07-17T11:31:24.976Z,37.77
2018-07-17T11:33:52.136Z,36.61
2018-07-17T11:36:19.305Z,33.79
2018-07-17T11:38:46.515Z,34.84
2018-07-17T11:41:13.637Z,33.88
2018-07-17T11:43:40.751Z,33.50
2018-07-17T11:46:07.916Z,34.70
2018-07-17T11:48:35.061Z,33.80
2018-07-17T11:51:02.311Z,33.72
2018-07-17T11:53:29.436Z,34.53
2018-07-17T11:55:56.597Z,31.15
2018-07-17T11:58:23.688Z,32.39
2018-07-17T12:00:50.855Z,31.49
2018-07-17T12:03:18.007Z,30.39
2018-07-17T12:05:45.275Z,29.33
2018-07-17T12:08:12.457Z,30.17
2018-07-17T12:10:39.588Z,29.62
2018-07-17T12:13:06.903Z,29.36
2018-07-17T12:15:35.243Z,29.87
2018-07-17T12:18:02.512Z,29.72
2018-07-17T12:20:29.794Z,30.15
2018-07-17T12:22:56.887Z,28.72
2018-07-17T12:25:24.276Z,29.40
2018-07-17T12:27:54.082Z,30.70
2018-07-17T12:30:25.008Z,30.66
2018-07-17T12:32:52.206Z,28.83
2018-07-17T12:35:19.381Z,28.79
2018-07-17T12:37:46.569Z,30.34
2018-07-17T12:40:14.570Z,29.39
2018-07-17T12:42:41.768Z,29.67
2018-07-17T12:45:08.923Z,32.76
2018-07-17T12:47:36.105Z,32.25
2018-07-17T12:50:04.479Z,33.05
2018-07-17T12:52:31.536Z,32.36
2018-07-17T12:54:58.786Z,31.60
2018-07-17T12:57:26.015Z,28.13
2018-07-17T12:59:53.227Z,27.64
2018-07-17T13:02:20.495Z,30.27
2018-07-17T13:04:47.961Z,28.90
2018-07-17T13:07:15.281Z,31.78
2018-07-17T13:09:42.456Z,29.81
2018-07-17T13:12:09.807Z,30.43
2018-07-17T13:14:37.037Z,31.38
2018-07-17T13:17:04.249Z,30.30
2018-07-17T13:19:31.391Z,30.64
2018-07-17T13:22:02.081Z,31.95
2018-07-17T13:24:32.203Z,33.58
2018-07-17T13:27:02.128Z,33.77
2018-07-17T13:29:30.568Z,32.51
2018-07-17T13:32:02.847Z,35.75
2018-07-17T13:34:31.515Z,35.81
2018-07-17T13:37:00.588Z,37.23
2018-07-17T13:39:32.074Z,39.74
2018-07-17T13:42:04.055Z,40.40
2018-07-17T13:44:33.865Z,41.28
2018-07-17T13:47:05.125Z,41.39
2018-07-17T13:49:34.545Z,41.81
2018-07-17T13:52:02.910Z,40.59
2018-07-17T13:54:30.839Z,43.52
2018-07-17T13:56:58.117Z,45.03
2018-07-17T13:59:25.252Z,50.02
2018-07-17T14:01:52.391Z,57.06
2018-07-17T14:04:19.649Z,63.21
2018-07-17T14:06:46.894Z,71.79
2018-07-17T14:09:14.190Z,75.76
2018-07-17T14:11:41.400Z,74.22
2018-07-17T14:14:08.599Z,78.19
2018-07-17T14:16:35.825Z,77.41
2018-07-17T14:19:03.046Z,74.86
2018-07-17T14:21:30.234Z,77.11
2018-07-17T14:23:57.423Z,78.15
2018-07-17T14:26:24.627Z,80.54
2018-07-17T14:28:51.827Z,78.21
2018-07-17T14:31:18.997Z,82.41
2018-07-17T14:33:46.104Z,79.44
2018-07-17T14:36:13.349Z,78.89
2018-07-17T14:38:40.492Z,78.36
2018-07-17T14:41:07.757Z,81.58
2018-07-17T14:43:34.900Z,77.07
2018-07-17T14:46:02.061Z,74.27
2018-07-17T14:48:29.347Z,72.27
2018-07-17T14:50:56.538Z,74.04
2018-07-17T14:53:23.769Z,70.04
2018-07-17T14:55:50.973Z,68.43
2018-07-17T14:58:18.181Z,70.87
2018-07-17T15:00:45.420Z,70.07
2018-07-17T15:03:12.680Z,66.62
2018-07-17T15:05:39.844Z,67.09
2018-07-17T15:08:06.947Z,65.86
2018-07-17T15:10:34.174Z,64.14
2018-07-17T15:13:01.407Z,63.17
2018-07-17T15:15:28.667Z,61.63
2018-07-17T15:17:55.908Z,64.30
2018-07-17T15:20:23.109Z,60.84
2018-07-17T15:22:50.281Z,56.85
2018-07-17T15:25:17.477Z,62.58
2018-07-17T15:27:44.749Z,61.82
2018-07-17T15:30:11.912Z,59.99
2018-07-17T15:32:39.125Z,61.74
2018-07-17T15:35:06.309Z,64.53
2018-07-17T15:37:33.549Z,72.40
2018-07-17T15:40:00.778Z,65.39
2018-07-17T15:42:27.945Z,61.39
2018-07-17T15:44:55.171Z,57.61
2018-07-17T15:47:22.373Z,59.10
2018-07-17T15:49:49.592Z,57.69
2018-07-17T15:52:16.724Z,56.05
2018-07-17T15:54:43.926Z,55.09
2018-07-17T15:57:11.108Z,59.46
2018-07-17T15:59:47.075Z,62.30
2018-07-17T16:02:14.204Z,65.32
2018-07-17T16:04:41.339Z,66.47
2018-07-17T16:07:08.520Z,68.29
2018-07-17T16:09:35.714Z,70.69
2018-07-17T16:12:02.868Z,70.43
2018-07-17T16:14:30.272Z,68.36
2018-07-17T16:16:57.191Z,69.71
2018-07-17T16:19:24.299Z,68.77
2018-07-17T16:21:51.507Z,67.54
2018-07-17T16:24:18.712Z,67.11
2018-07-17T16:26:45.972Z,65.65
2018-07-17T16:29:13.124Z,66.42
2018-07-17T16:31:40.189Z,57.27
2018-07-17T16:34:07.358Z,63.41
2018-07-17T16:36:34.503Z,57.43
2018-07-17T16:39:01.665Z,48.79
2018-07-17T16:41:28.794Z,54.13
2018-07-17T16:43:55.924Z,58.34
2018-07-17T16:46:23.068Z,57.61
2018-07-17T16:48:50.182Z,57.72
2018-07-17T16:51:17.330Z,57.35
2018-07-17T16:53:44.467Z,57.33
2018-07-17T16:56:11.620Z,50.86
2018-07-17T16:58:38.781Z,57.84
2018-07-17T17:01:05.968Z,58.62
2018-07-17T17:03:33.080Z,54.96
2018-07-17T17:06:00.236Z,57.39
2018-07-17T17:08:27.401Z,54.97
2018-07-17T17:10:54.545Z,46.64
2018-07-17T17:13:21.844Z,47.18
2018-07-17T17:15:49.047Z,43.68
2018-07-17T17:18:16.189Z,44.75
2018-07-17T17:20:43.351Z,43.49
2018-07-17T17:23:10.492Z,41.22
2018-07-17T17:25:37.641Z,42.85
2018-07-17T17:28:04.842Z,41.97
2018-07-17T17:30:31.976Z,44.40
2018-07-17T17:32:59.112Z,43.14
2018-07-17T17:35:26.273Z,44.18
2018-07-17T17:37:53.376Z,44.02
2018-07-17T17:40:20.468Z,47.30
2018-07-17T17:42:47.623Z,46.20
2018-07-17T17:45:14.799Z,47.63
2018-07-17T17:47:42.031Z,54.23
2018-07-17T17:50:09.205Z,50.85
2018-07-17T17:52:36.340Z,51.48
2018-07-17T17:55:04.217Z,53.53
2018-07-17T17:57:31.409Z,54.53
2018-07-17T17:59:58.555Z,56.54
2018-07-17T18:02:25.684Z,58.21
2018-07-17T18:04:52.821Z,60.51
2018-07-17T18:07:19.941Z,63.24
2018-07-17T18:09:47.131Z,63.35
2018-07-17T18:12:14.307Z,64.12
2018-07-17T18:14:41.454Z,66.24
2018-07-17T18:17:08.893Z,64.65
2018-07-17T18:19:36.238Z,66.42
2018-07-17T18:22:03.363Z,67.69
2018-07-17T18:24:30.518Z,68.06
2018-07-17T18:26:57.712Z,68.07
2018-07-17T18:29:24.847Z,68.16
2018-07-17T18:31:52.012Z,67.30
2018-07-17T18:34:19.202Z,65.77
2018-07-17T18:36:46.433Z,68.08
2018-07-17T18:39:13.557Z,68.01
2018-07-17T18:41:40.836Z,68.13
2018-07-17T18:44:07.917Z,67.48
2018-07-17T18:46:35.103Z,61.58
2018-07-17T18:49:02.256Z,61.68
2018-07-17T18:51:29.570Z,58.68
2018-07-17T18:53:56.788Z,61.11
2018-07-17T18:56:23.922Z,62.78
2018-07-17T18:58:51.183Z,63.94
2018-07-17T19:01:18.499Z,63.88
2018-07-17T19:03:45.716Z,64.03
2018-07-17T19:06:12.893Z,62.75
2018-07-17T19:08:40.085Z,63.93
2018-07-17T19:11:07.350Z,61.20
2018-07-17T19:13:34.624Z,60.06
2018-07-17T19:16:01.862Z,57.11
2018-07-17T19:18:29.085Z,56.36
2018-07-17T19:20:56.381Z,58.44
2018-07-17T19:23:23.900Z,59.11
2018-07-17T19:25:51.176Z,58.25
2018-07-17T19:28:18.320Z,56.81
2018-07-17T19:30:45.519Z,58.28
2018-07-17T19:33:12.682Z,58.14
2018-07-17T19:36:43.301Z,56.31
2018-07-17T19:39:11.489Z,55.45
2018-07-17T19:41:38.773Z,55.66
2018-07-17T19:44:06.093Z,55.24
2018-07-17T19:46:33.283Z,53.56
2018-07-17T19:49:00.416Z,55.08
2018-07-17T19:51:27.652Z,54.60
2018-07-17T19:53:54.782Z,55.65
2018-07-17T19:56:21.961Z,55.57
2018-07-17T19:58:49.140Z,55.90
2018-07-17T20:01:16.326Z,55.90
2018-07-17T20:03:43.591Z,56.89
2018-07-17T20:06:10.755Z,57.68
2018-07-17T20:08:37.942Z,59.28
2018-07-17T20:11:05.154Z,57.90
2018-07-17T20:13:32.336Z,58.04
2018-07-17T20:15:59.505Z,57.47
2018-07-17T20:18:26.676Z,58.08
2018-07-17T20:20:53.960Z,57.26
2018-07-17T20:23:21.208Z,57.31
2018-07-17T20:25:48.440Z,57.50
2018-07-17T20:28:15.670Z,57.68
2018-07-17T20:30:42.825Z,58.44
2018-07-17T20:33:09.974Z,58.51
2018-07-17T20:35:37.199Z,59.21
2018-07-17T20:38:04.436Z,59.74
2018-07-17T20:40:31.865Z,58.41
2018-07-17T20:42:59.008Z,58.98
2018-07-17T20:45:26.188Z,59.07
2018-07-17T20:47:53.321Z,59.40
2018-07-17T20:50:20.584Z,59.34
2018-07-17T20:52:47.843Z,59.59
2018-07-17T20:55:15.052Z,59.63
2018-07-17T20:57:42.196Z,58.59
2018-07-17T21:00:09.365Z,58.68
2018-07-17T21:02:36.710Z,58.26
2018-07-17T21:05:05.096Z,58.77
2018-07-17T21:07:32.325Z,58.27
2018-07-17T21:09:59.508Z,58.78
2018-07-17T21:12:26.672Z,59.20
2018-07-17T21:14:54.030Z,58.45
2018-07-17T21:17:21.164Z,58.23
2018-07-17T21:19:48.353Z,58.80
2018-07-17T21:22:15.845Z,58.91
2018-07-17T21:24:43.004Z,59.23
2018-07-17T21:27:10.136Z,59.81
2018-07-17T21:29:37.269Z,59.93
2018-07-17T21:32:04.422Z,59.42
2018-07-17T21:34:31.528Z,59.71
2018-07-17T21:36:58.695Z,58.50
2018-07-17T21:39:25.801Z,59.89
2018-07-17T21:41:52.949Z,61.83
2018-07-17T21:44:20.104Z,63.81
2018-07-17T21:46:47.267Z,64.61
2018-07-17T21:49:14.396Z,65.85
2018-07-17T21:54:15.468Z,67.22
2018-07-17T21:56:42.645Z,68.23
2018-07-17T21:59:09.740Z,67.93
2018-07-17T22:04:10.764Z,70.34
2018-07-17T22:06:37.877Z,71.51
2018-07-17T22:09:07.684Z,69.93
2018-07-17T22:11:34.803Z,70.17
2018-07-17T22:14:01.973Z,69.50
2018-07-17T22:16:29.169Z,69.93
2018-07-17T22:18:56.264Z,69.31
2018-07-17T22:21:24.162Z,70.05
2018-07-17T22:23:51.305Z,69.59
2018-07-17T22:26:18.642Z,68.51
2018-07-17T22:28:45.773Z,68.52
2018-07-17T22:31:12.920Z,70.03
2018-07-17T22:33:40.037Z,70.86
2018-07-17T22:36:07.185Z,72.10
2018-07-17T22:38:34.328Z,71.34
2018-07-17T22:41:01.479Z,71.40
2018-07-17T22:43:28.627Z,73.65
2018-07-17T22:45:55.808Z,73.66
2018-07-17T22:48:22.924Z,73.77
2018-07-17T22:50:50.038Z,74.00
2018-07-17T22:53:17.180Z,74.59
2018-07-17T22:55:44.323Z,74.73
2018-07-17T22:58:11.460Z,74.24
2018-07-17T23:00:38.649Z,74.92
2018-07-17T23:03:05.827Z,73.92
2018-07-17T23:05:32.925Z,73.86
2018-07-17T23:08:00.062Z,73.72
2018-07-17T23:10:27.224Z,73.18
2018-07-17T23:12:54.355Z,72.92
2018-07-17T23:15:21.494Z,73.09
2018-07-17T23:17:48.684Z,72.71
2018-07-17T23:20:15.814Z,72.87
2018-07-17T23:22:51.315Z,73.54
2018-07-17T23:25:18.863Z,75.10
2018-07-17T23:27:46.445Z,77.42
2018-07-17T23:30:13.879Z,76.04
2018-07-17T23:32:41.158Z,75.55
2018-07-17T23:35:08.415Z,75.31
2018-07-17T23:37:35.708Z,73.91
2018-07-17T23:40:03.070Z,75.34
2018-07-17T23:42:30.350Z,75.41
2018-07-17T23:44:57.603Z,74.20
2018-07-17T23:47:24.875Z,73.87
2018-07-17T23:49:52.143Z,73.73
2018-07-17T23:52:19.412Z,75.46
2018-07-17T23:54:46.651Z,77.28
2018-07-17T23:57:13.902Z,76.87
2018-07-17T23:59:41.166Z,76.99
